createdAt,value
2022-11-05T00:00:29.633Z,95776.97
2022-11-05T00:03:14.603Z,95778.72
2022-11-05T00:05:59.953Z,95780.81
2022-11-05T00:08:45.296Z,95783.44
2022-11-05T00:11:16.869Z,95772.31
2022-11-05T00:14:03.437Z,95777.63
2022-11-05T00:16:44.900Z,95777.38
2022-11-05T00:19:11.513Z,95769.16
2022-11-05T00:21:57.915Z,95772.00
2022-11-05T00:24:43.786Z,95778.13
2022-11-05T00:27:10.748Z,95778.06
2022-11-05T00:29:37.617Z,95787.19
2022-11-05T00:32:04.436Z,95795.50
2022-11-05T00:34:31.021Z,95796.50
2022-11-05T00:36:57.592Z,95805.03
2022-11-05T00:39:24.199Z,95807.44
2022-11-05T00:42:10.708Z,95809.06
2022-11-05T00:44:55.571Z,95812.59
2022-11-05T00:47:40.445Z,95823.94
2022-11-05T00:50:07.277Z,95815.41
2022-11-05T00:52:52.020Z,95823.81
2022-11-05T00:55:18.606Z,95817.31
2022-11-05T00:57:45.210Z,95818.34
2022-11-05T01:00:12.597Z,95821.50
2022-11-05T01:02:39.348Z,95819.94
2022-11-05T01:05:06.205Z,95812.13
2022-11-05T01:07:32.782Z,95814.91
2022-11-05T01:09:59.376Z,95824.72
2022-11-05T01:12:25.965Z,95825.22
2022-11-05T01:14:52.603Z,95815.00
2022-11-05T01:17:19.212Z,95820.59
2022-11-05T01:19:45.777Z,95816.25
2022-11-05T01:22:12.997Z,95817.34
2022-11-05T01:24:39.604Z,95810.38
2022-11-05T01:27:06.264Z,95819.59
2022-11-05T01:29:32.867Z,95812.56
2022-11-05T01:31:59.590Z,95815.53
2022-11-05T01:34:26.169Z,95815.41
2022-11-05T01:36:52.793Z,95811.44
2022-11-05T01:39:19.369Z,95814.81
2022-11-05T01:41:45.989Z,95803.34
2022-11-05T01:44:50.194Z,95813.09
2022-11-05T01:47:36.416Z,95816.63
2022-11-05T01:50:16.373Z,95830.25
2022-11-05T01:52:43.278Z,95840.38
2022-11-05T01:55:11.297Z,95843.63
2022-11-05T01:57:38.119Z,95849.69
2022-11-05T02:00:05.159Z,95853.41
2022-11-05T02:02:31.815Z,95866.63
2022-11-05T02:05:02.450Z,95873.50
2022-11-05T02:07:29.786Z,95871.69
2022-11-05T02:10:11.129Z,95871.63
2022-11-05T02:12:39.476Z,95875.84
2022-11-05T02:15:06.797Z,95876.84
2022-11-05T02:18:32.712Z,95883.75
2022-11-05T02:21:38.388Z,95885.00
2022-11-05T02:24:29.144Z,95883.28
2022-11-05T02:27:12.091Z,95878.31
2022-11-05T02:29:59.304Z,95880.56
2022-11-05T02:32:45.417Z,95889.00
2022-11-05T02:35:33.273Z,95880.63
2022-11-05T02:38:13.504Z,95893.56
2022-11-05T02:40:59.665Z,95896.50
2022-11-05T02:43:38.092Z,95885.81
2022-11-05T02:46:30.813Z,95879.09
2022-11-05T02:48:57.362Z,95881.78
2022-11-05T02:51:33.156Z,95885.81
2022-11-05T02:54:27.124Z,95889.13
2022-11-05T02:56:56.890Z,95894.75
2022-11-05T02:59:23.488Z,95887.31
2022-11-05T03:01:52.133Z,95895.25
2022-11-05T03:04:21.904Z,95898.28
2022-11-05T03:06:57.426Z,95897.38
2022-11-05T03:09:42.016Z,95902.34
2022-11-05T03:12:37.134Z,95902.00
2022-11-05T03:15:29.574Z,95910.06
2022-11-05T03:18:03.064Z,95907.22
2022-11-05T03:20:54.758Z,95919.16
2022-11-05T03:23:43.001Z,95924.34
2022-11-05T03:26:33.996Z,95929.03
2022-11-05T03:29:09.565Z,95930.81
2022-11-05T03:31:39.060Z,95913.19
2022-11-05T03:34:08.032Z,95926.66
2022-11-05T03:36:42.284Z,95933.94
2022-11-05T03:39:13.819Z,95931.75
2022-11-05T03:41:45.613Z,95929.25
2022-11-05T03:44:15.101Z,95942.69
2022-11-05T03:46:45.295Z,95947.78
2022-11-05T03:49:19.156Z,95949.50
2022-11-05T03:51:59.016Z,95957.22
2022-11-05T03:54:25.880Z,95951.19
2022-11-05T03:56:52.400Z,95949.22
2022-11-05T03:59:20.278Z,95947.53
2022-11-05T04:01:48.015Z,95941.78
2022-11-05T04:04:14.681Z,95944.63
2022-11-05T04:06:59.942Z,95939.81
2022-11-05T04:09:44.738Z,95949.28
2022-11-05T04:12:30.238Z,95950.84
2022-11-05T04:14:57.065Z,95941.00
2022-11-05T04:17:23.668Z,95949.22
2022-11-05T04:20:08.765Z,95951.03
2022-11-05T04:22:54.689Z,95968.28
2022-11-05T04:25:22.854Z,95971.56
2022-11-05T04:27:49.858Z,95966.69
2022-11-05T04:30:18.523Z,95967.00
2022-11-05T04:33:09.600Z,95966.69
2022-11-05T04:35:38.099Z,95977.09
2022-11-05T04:38:10.201Z,95978.47
2022-11-05T04:40:37.508Z,95978.09
2022-11-05T04:43:06.511Z,95984.66
2022-11-05T04:45:36.105Z,95979.81
2022-11-05T04:48:03.605Z,95983.59
2022-11-05T04:50:30.403Z,95988.16
2022-11-05T04:52:57.317Z,95983.38
2022-11-05T04:55:24.367Z,95987.66
2022-11-05T04:57:52.493Z,95980.31
2022-11-05T05:00:21.041Z,95982.97
2022-11-05T05:02:47.736Z,95990.31
2022-11-05T05:05:14.692Z,95997.00
2022-11-05T05:07:42.000Z,95995.09
2022-11-05T05:10:10.135Z,95995.72
2022-11-05T05:12:36.806Z,95996.84
2022-11-05T05:15:04.257Z,95987.41
2022-11-05T05:17:30.860Z,95993.00
2022-11-05T05:20:16.213Z,95997.47
2022-11-05T05:22:42.916Z,95997.69
2022-11-05T05:25:09.509Z,96005.22
2022-11-05T05:27:36.132Z,96004.03
2022-11-05T05:30:03.555Z,96007.63
2022-11-05T05:32:30.139Z,95996.91
2022-11-05T05:34:56.721Z,96003.53
2022-11-05T05:37:23.313Z,96001.91
2022-11-05T05:39:50.047Z,96001.84
2022-11-05T05:42:16.767Z,96014.66
2022-11-05T05:44:43.423Z,96014.31
2022-11-05T05:47:10.072Z,96020.13
2022-11-05T05:49:36.682Z,96022.75
2022-11-05T05:52:03.365Z,96019.47
2022-11-05T05:54:32.904Z,96023.22
2022-11-05T05:57:01.790Z,96023.81
2022-11-05T05:59:28.427Z,96032.94
2022-11-05T06:01:55.148Z,96032.75
2022-11-05T06:04:21.816Z,96037.75
2022-11-05T06:06:49.650Z,96036.88
2022-11-05T06:09:16.396Z,96031.84
2022-11-05T06:11:43.062Z,96042.09
2022-11-05T06:14:11.570Z,96035.94
2022-11-05T06:16:39.392Z,96041.19
2022-11-05T06:19:06.699Z,96038.25
2022-11-05T06:21:33.498Z,96059.00
2022-11-05T06:24:01.808Z,96065.56
2022-11-05T06:26:28.711Z,96063.38
2022-11-05T06:28:55.348Z,96075.91
2022-11-05T06:31:22.041Z,96082.16
2022-11-05T06:33:48.921Z,96089.75
2022-11-05T06:36:17.193Z,96081.78
2022-11-05T06:38:44.040Z,96092.47
2022-11-05T06:41:11.028Z,96099.09
2022-11-05T06:43:38.350Z,96108.56
2022-11-05T06:46:05.237Z,96108.56
2022-11-05T06:48:31.814Z,96101.78
2022-11-05T06:50:58.561Z,96117.66
2022-11-05T06:53:25.595Z,96118.16
2022-11-05T06:55:52.297Z,96117.59
2022-11-05T06:58:19.362Z,96130.47
2022-11-05T07:00:46.476Z,96131.00
2022-11-05T07:03:14.070Z,96138.47
2022-11-05T07:05:45.187Z,96130.19
2022-11-05T07:08:12.129Z,96146.22
2022-11-05T07:10:38.841Z,96151.84
2022-11-05T07:13:08.308Z,96152.81
2022-11-05T07:15:36.701Z,96150.66
2022-11-05T07:18:04.272Z,96152.75
2022-11-05T07:20:34.165Z,96156.03
2022-11-05T07:23:06.731Z,96165.66
2022-11-05T07:25:34.050Z,96170.63
2022-11-05T07:28:01.466Z,96177.44
2022-11-05T07:30:29.134Z,96174.94
2022-11-05T07:32:55.881Z,96164.47
2022-11-05T07:35:23.138Z,96172.94
2022-11-05T07:37:51.773Z,96165.97
2022-11-05T07:40:19.461Z,96171.22
2022-11-05T07:42:54.413Z,96174.47
2022-11-05T07:45:21.801Z,96173.25
2022-11-05T07:47:50.604Z,96175.34
2022-11-05T07:50:19.024Z,96179.00
2022-11-05T07:52:45.979Z,96184.38
2022-11-05T07:55:13.419Z,96182.38
2022-11-05T07:57:44.840Z,96178.84
2022-11-05T08:00:17.160Z,96181.44
2022-11-05T08:02:44.116Z,96184.06
2022-11-05T08:05:10.958Z,96178.69
2022-11-05T08:07:37.566Z,96180.47
2022-11-05T08:10:04.647Z,96187.56
2022-11-05T08:12:32.397Z,96188.44
2022-11-05T08:14:59.161Z,96191.13
2022-11-05T08:17:25.841Z,96189.63
2022-11-05T08:19:52.621Z,96189.41
2022-11-05T08:22:19.233Z,96206.41
2022-11-05T08:24:45.796Z,96218.88
2022-11-05T08:27:12.470Z,96209.16
2022-11-05T08:29:39.064Z,96212.38
2022-11-05T08:32:05.702Z,96212.56
2022-11-05T08:34:32.324Z,96207.75
2022-11-05T08:37:01.271Z,96207.72
2022-11-05T08:39:28.149Z,96205.63
2022-11-05T08:41:54.922Z,96208.28
2022-11-05T08:44:21.608Z,96205.63
2022-11-05T08:46:48.268Z,96202.19
2022-11-05T08:49:14.868Z,96202.03
2022-11-05T08:51:41.553Z,96201.91
2022-11-05T08:54:08.135Z,96202.97
2022-11-05T08:56:34.989Z,96200.25
2022-11-05T08:59:01.571Z,96204.22
2022-11-05T09:01:28.167Z,96199.81
2022-11-05T09:03:54.840Z,96203.91
2022-11-05T09:06:21.460Z,96203.34
2022-11-05T09:08:48.104Z,96207.22
2022-11-05T09:11:14.857Z,96209.41
2022-11-05T09:13:41.494Z,96209.84
2022-11-05T09:16:18.776Z,96216.91
2022-11-05T09:18:45.357Z,96219.16
2022-11-05T09:21:11.925Z,96227.03
2022-11-05T09:23:39.147Z,96230.84
2022-11-05T09:26:05.899Z,96240.16
2022-11-05T09:28:33.216Z,96237.00
2022-11-05T09:31:00.657Z,96236.75
2022-11-05T09:33:28.061Z,96238.03
2022-11-05T09:35:54.690Z,96243.59
2022-11-05T09:38:21.303Z,96245.72
2022-11-05T09:41:20.095Z,96245.75
2022-11-05T09:43:53.485Z,96250.03
2022-11-05T09:46:25.632Z,96244.06
2022-11-05T09:49:05.538Z,96246.34
2022-11-05T09:51:33.197Z,96252.63
2022-11-05T09:54:00.700Z,96249.47
2022-11-05T09:56:33.944Z,96249.78
2022-11-05T09:59:06.096Z,96242.38
2022-11-05T10:01:36.387Z,96252.50
2022-11-05T10:04:09.425Z,96257.38
2022-11-05T10:06:43.188Z,96252.56
2022-11-05T10:09:35.409Z,96262.75
2022-11-05T10:12:05.604Z,96258.34
2022-11-05T10:14:41.850Z,96248.47
2022-11-05T10:17:24.468Z,96258.63
2022-11-05T10:19:58.173Z,96252.16
2022-11-05T10:22:25.372Z,96256.72
2022-11-05T10:24:53.485Z,96251.34
2022-11-05T10:27:27.227Z,96254.91
2022-11-05T10:29:54.211Z,96255.19
2022-11-05T10:32:43.081Z,96263.47
2022-11-05T10:35:15.100Z,96255.72
2022-11-05T10:37:41.758Z,96263.50
2022-11-05T10:40:47.773Z,96259.28
2022-11-05T10:43:25.078Z,96266.44
2022-11-05T10:46:28.562Z,96267.00
2022-11-05T10:49:24.594Z,96261.28
2022-11-05T10:51:58.079Z,96270.84
2022-11-05T10:54:31.540Z,96265.34
2022-11-05T10:56:58.190Z,96274.13
2022-11-05T10:59:29.493Z,96279.00
2022-11-05T11:02:25.938Z,96280.19
2022-11-05T11:04:56.098Z,96275.66
2022-11-05T11:07:24.821Z,96283.97
2022-11-05T11:09:52.741Z,96288.22
2022-11-05T11:12:28.932Z,96287.78
2022-11-05T11:15:04.464Z,96287.72
2022-11-05T11:17:32.436Z,96282.88
2022-11-05T11:20:20.535Z,96287.75
2022-11-05T11:23:16.841Z,96289.34
2022-11-05T11:25:50.943Z,96293.41
2022-11-05T11:28:29.655Z,96283.25
2022-11-05T11:31:27.242Z,96291.00
2022-11-05T11:34:20.373Z,96294.63
2022-11-05T11:36:50.503Z,96296.13
2022-11-05T11:39:21.920Z,96294.47
2022-11-05T11:42:07.996Z,96289.53
2022-11-05T11:44:41.198Z,96288.31
2022-11-05T11:47:14.207Z,96291.97
2022-11-05T11:49:52.769Z,96307.00
2022-11-05T11:52:31.418Z,96308.19
2022-11-05T11:55:13.270Z,96308.56
2022-11-05T11:57:46.025Z,96316.44
2022-11-05T12:00:13.416Z,96308.13
2022-11-05T12:02:45.886Z,96310.53
2022-11-05T12:05:15.142Z,96315.94
2022-11-05T12:07:58.121Z,96316.97
2022-11-05T12:11:08.321Z,96313.41
2022-11-05T12:14:11.245Z,96311.25
2022-11-05T12:16:50.597Z,96318.31
2022-11-05T12:19:24.821Z,96312.31
2022-11-05T12:22:26.696Z,96310.69
2022-11-05T12:25:42.488Z,96312.22
2022-11-05T12:28:36.060Z,96324.13
2022-11-05T12:31:05.652Z,96321.50
2022-11-05T12:33:42.302Z,96318.78
2022-11-05T12:36:21.323Z,96320.94
2022-11-05T12:39:15.873Z,96314.78
2022-11-05T12:41:54.529Z,96308.72
2022-11-05T12:44:33.301Z,96318.44
2022-11-05T12:47:06.496Z,96309.19
2022-11-05T12:49:52.065Z,96305.16
2022-11-05T12:52:26.141Z,96308.19
2022-11-05T12:55:11.605Z,96300.88
2022-11-05T12:57:43.136Z,96310.94
2022-11-05T13:00:18.374Z,96319.72
2022-11-05T13:02:55.425Z,96320.00
2022-11-05T13:05:36.550Z,96318.22
2022-11-05T13:08:10.645Z,96319.19
2022-11-05T13:10:52.596Z,96320.28
2022-11-05T13:13:29.273Z,96321.22
2022-11-05T13:16:06.546Z,96315.88
2022-11-05T13:18:58.747Z,96318.56
2022-11-05T13:21:29.027Z,96321.97
2022-11-05T13:24:06.486Z,96308.66
2022-11-05T13:27:09.241Z,96305.53
2022-11-05T13:29:44.097Z,96304.81
2022-11-05T13:32:34.459Z,96302.75
2022-11-05T13:35:04.987Z,96310.72
2022-11-05T13:37:58.568Z,96308.94
2022-11-05T13:40:57.060Z,96322.09
2022-11-05T13:43:58.730Z,96322.44
2022-11-05T13:46:45.613Z,96319.31
2022-11-05T13:49:30.895Z,96329.16
2022-11-05T13:52:10.782Z,96326.78
2022-11-05T13:55:01.731Z,96334.53
2022-11-05T13:57:31.158Z,96338.41
2022-11-05T14:00:19.441Z,96341.47
2022-11-05T14:02:59.021Z,96341.66
2022-11-05T14:05:41.440Z,96341.13
2022-11-05T14:08:11.285Z,96355.16
2022-11-05T14:10:46.608Z,96348.19
2022-11-05T14:13:25.606Z,96353.56
2022-11-05T14:16:07.741Z,96352.44
2022-11-05T14:18:56.816Z,96352.56
2022-11-05T14:21:26.121Z,96350.59
2022-11-05T14:24:21.487Z,96351.81
2022-11-05T14:27:03.366Z,96349.63
2022-11-05T14:29:41.146Z,96352.09
2022-11-05T14:32:19.791Z,96350.19
2022-11-05T14:34:48.355Z,96358.72
2022-11-05T14:37:23.733Z,96350.75
2022-11-05T14:39:51.224Z,96360.13
2022-11-05T14:42:26.752Z,96364.28
2022-11-05T14:45:14.671Z,96365.72
2022-11-05T14:47:50.113Z,96374.59
2022-11-05T14:50:41.585Z,96379.81
2022-11-05T14:53:26.781Z,96378.66
2022-11-05T14:56:09.682Z,96375.91
2022-11-05T14:58:38.606Z,96385.97
2022-11-05T15:01:09.501Z,96392.00
2022-11-05T15:03:45.392Z,96382.78
2022-11-05T15:06:29.923Z,96379.63
2022-11-05T15:09:12.649Z,96381.34
2022-11-05T15:11:44.391Z,96386.19
2022-11-05T15:14:22.552Z,96394.25
2022-11-05T15:16:53.143Z,96387.06
2022-11-05T15:19:41.140Z,96393.56
2022-11-05T15:22:20.606Z,96389.13
2022-11-05T15:24:47.537Z,96391.06
2022-11-05T15:27:36.961Z,96392.25
2022-11-05T15:30:30.072Z,96398.03
2022-11-05T15:33:09.311Z,96401.97
2022-11-05T15:35:41.397Z,96398.91
2022-11-05T15:38:24.950Z,96393.38
2022-11-05T15:40:56.665Z,96394.28
2022-11-05T15:43:23.225Z,96399.50
2022-11-05T15:46:25.773Z,96397.09
2022-11-05T15:48:54.803Z,96395.00
2022-11-05T15:51:23.938Z,96401.44
2022-11-05T15:56:45.342Z,96406.09
2022-11-05T15:59:20.628Z,96409.19
2022-11-05T16:02:06.187Z,96411.75
2022-11-05T16:04:34.986Z,96411.75
2022-11-05T16:07:09.412Z,96414.44
2022-11-05T16:09:40.060Z,96403.63
2022-11-05T16:12:12.598Z,96415.38
2022-11-05T16:14:39.705Z,96426.56
2022-11-05T16:17:22.644Z,96425.31
2022-11-05T16:19:50.124Z,96428.66
2022-11-05T16:22:17.356Z,96422.28
2022-11-05T16:24:45.173Z,96420.25
2022-11-05T16:27:19.164Z,96426.00
2022-11-05T16:29:54.329Z,96435.84
2022-11-05T16:32:30.719Z,96437.78
2022-11-05T16:35:03.463Z,96436.50
2022-11-05T16:37:37.526Z,96445.75
2022-11-05T16:40:22.983Z,96446.13
2022-11-05T16:42:51.613Z,96449.41
2022-11-05T16:45:21.340Z,96447.03
2022-11-05T16:47:48.662Z,96445.09
2022-11-05T16:50:25.335Z,96450.22
2022-11-05T16:52:52.330Z,96457.28
2022-11-05T16:55:19.480Z,96457.75
2022-11-05T16:57:50.718Z,96457.75
2022-11-05T17:00:19.869Z,96461.81
2022-11-05T17:02:47.160Z,96463.69
2022-11-05T17:05:26.272Z,96470.69
2022-11-05T17:07:53.391Z,96465.13
2022-11-05T17:10:21.832Z,96470.44
2022-11-05T17:12:49.317Z,96476.06
2022-11-05T17:15:21.680Z,96478.63
2022-11-05T17:17:48.816Z,96478.19
2022-11-05T17:20:43.932Z,96480.06
2022-11-05T17:23:13.104Z,96491.03
2022-11-05T17:25:41.545Z,96492.34
2022-11-05T17:28:09.355Z,96500.09
2022-11-05T17:30:39.413Z,96495.28
2022-11-05T17:33:07.985Z,96500.94
2022-11-05T17:35:34.602Z,96511.09
2022-11-05T17:38:01.191Z,96520.22
2022-11-05T17:40:28.924Z,96510.53
2022-11-05T17:42:55.548Z,96522.28
2022-11-05T17:45:22.217Z,96510.00
2022-11-05T17:47:48.872Z,96519.38
2022-11-05T17:50:16.265Z,96522.97
2022-11-05T17:52:43.572Z,96531.47
2022-11-05T17:55:16.809Z,96537.06
2022-11-05T17:57:48.556Z,96534.53
2022-11-05T18:00:20.885Z,96528.09
2022-11-05T18:02:49.616Z,96535.00
2022-11-05T18:05:20.280Z,96527.69
2022-11-05T18:07:48.375Z,96538.66
2022-11-05T18:10:15.705Z,96540.38
2022-11-05T18:12:43.040Z,96532.63
2022-11-05T18:15:10.154Z,96535.25
2022-11-05T18:17:37.135Z,96539.88
2022-11-05T18:20:11.663Z,96535.47
2022-11-05T18:22:41.309Z,96543.00
2022-11-05T18:25:10.028Z,96549.38
2022-11-05T18:27:36.685Z,96546.72
2022-11-05T18:30:04.756Z,96542.44
2022-11-05T18:32:31.332Z,96553.06
2022-11-05T18:34:58.080Z,96547.94
2022-11-05T18:37:25.329Z,96544.59
2022-11-05T18:39:52.686Z,96553.22
2022-11-05T18:42:20.953Z,96542.38
2022-11-05T18:44:48.337Z,96538.09
2022-11-05T18:47:15.525Z,96550.16
2022-11-05T18:49:42.154Z,96547.88
2022-11-05T18:52:09.182Z,96545.75
2022-11-05T18:54:35.782Z,96550.22
2022-11-05T18:57:02.569Z,96552.28
2022-11-05T18:59:39.090Z,96551.22
2022-11-05T19:02:08.341Z,96561.91
2022-11-05T19:04:36.802Z,96570.53
2022-11-05T19:07:05.333Z,96566.38
2022-11-05T19:09:33.617Z,96561.28
2022-11-05T19:12:00.408Z,96566.53
2022-11-05T19:14:26.990Z,96575.09
2022-11-05T19:16:53.633Z,96571.84
2022-11-05T19:19:20.252Z,96574.34
2022-11-05T19:21:46.833Z,96568.38
2022-11-05T19:24:17.081Z,96574.31
2022-11-05T19:26:44.374Z,96573.25
2022-11-05T19:29:11.556Z,96575.19
2022-11-05T19:31:38.601Z,96568.00
2022-11-05T19:34:05.695Z,96565.25
2022-11-05T19:36:33.308Z,96565.50
2022-11-05T19:39:03.519Z,96573.03
2022-11-05T19:41:30.365Z,96566.53
2022-11-05T19:44:01.761Z,96566.50
2022-11-05T19:46:29.881Z,96564.06
2022-11-05T19:48:57.026Z,96571.28
2022-11-05T19:51:25.943Z,96574.53
2022-11-05T19:53:53.237Z,96571.34
2022-11-05T19:56:25.704Z,96575.81
2022-11-05T19:58:53.396Z,96577.72
2022-11-05T20:01:21.804Z,96577.44
2022-11-05T20:03:48.780Z,96583.13
2022-11-05T20:06:18.494Z,96582.59
2022-11-05T20:09:07.026Z,96581.50
2022-11-05T20:11:31.971Z,96584.00
2022-11-05T20:13:58.837Z,96585.28
2022-11-05T20:16:28.411Z,96578.31
2022-11-05T20:18:55.632Z,96579.13
2022-11-05T20:21:22.232Z,96580.47
2022-11-05T20:23:49.013Z,96583.91
2022-11-05T20:26:15.934Z,96587.38
2022-11-05T20:28:43.719Z,96580.94
2022-11-05T20:31:12.824Z,96585.47
2022-11-05T20:33:40.830Z,96587.59
2022-11-05T20:36:18.949Z,96588.41
2022-11-05T20:38:55.167Z,96588.94
2022-11-05T20:41:22.637Z,96595.94
2022-11-05T20:43:49.203Z,96590.06
2022-11-05T20:46:17.932Z,96596.00
2022-11-05T20:48:45.376Z,96594.44
2022-11-05T20:51:18.909Z,96606.19
2022-11-05T20:53:48.914Z,96590.63
2022-11-05T20:56:18.145Z,96596.53
2022-11-05T20:58:45.074Z,96594.31
2022-11-05T21:01:13.395Z,96588.44
2022-11-05T21:03:40.082Z,96600.81
2022-11-05T21:06:06.873Z,96598.09
2022-11-05T21:08:34.161Z,96597.81
2022-11-05T21:11:01.209Z,96595.97
2022-11-05T21:13:27.874Z,96596.56
2022-11-05T21:15:57.169Z,96601.06
2022-11-05T21:18:27.248Z,96591.41
2022-11-05T21:20:54.446Z,96590.13
2022-11-05T21:23:21.483Z,96597.44
2022-11-05T21:25:48.128Z,96600.91
2022-11-05T21:28:16.057Z,96601.69
2022-11-05T21:30:49.082Z,96600.34
2022-11-05T21:33:17.574Z,96592.81
2022-11-05T21:35:47.506Z,96595.81
2022-11-05T21:38:16.662Z,96599.22
2022-11-05T21:40:43.932Z,96603.22
2022-11-05T21:43:11.289Z,96599.19
2022-11-05T21:45:39.099Z,96597.53
2022-11-05T21:48:06.573Z,96588.16
2022-11-05T21:50:52.049Z,96592.19
2022-11-05T21:53:37.538Z,96587.31
2022-11-05T21:56:42.456Z,96592.63
2022-11-05T21:59:36.873Z,96596.97
2022-11-05T22:02:04.749Z,96588.41
2022-11-05T22:04:39.850Z,96592.19
2022-11-05T22:07:08.324Z,96590.50
2022-11-05T22:09:35.237Z,96589.44
2022-11-05T22:12:02.285Z,96583.72
2022-11-05T22:14:29.424Z,96579.06
2022-11-05T22:16:56.134Z,96587.88
2022-11-05T22:19:23.159Z,96583.84
2022-11-05T22:21:49.915Z,96585.44
2022-11-05T22:24:16.895Z,96578.31
2022-11-05T22:26:44.450Z,96581.19
2022-11-05T22:29:11.504Z,96586.81
2022-11-05T22:31:38.211Z,96578.03
2022-11-05T22:34:06.405Z,96593.31
2022-11-05T22:36:34.438Z,96580.41
2022-11-05T22:39:01.630Z,96592.75
2022-11-05T22:41:28.373Z,96595.44
2022-11-05T22:43:55.763Z,96590.63
2022-11-05T22:46:24.556Z,96604.06
2022-11-05T22:48:51.577Z,96603.50
2022-11-05T22:51:32.342Z,96596.50
2022-11-05T22:53:59.434Z,96601.31
2022-11-05T22:56:28.805Z,96606.66
2022-11-05T22:58:55.788Z,96602.38
2022-11-05T23:01:23.950Z,96589.50
2022-11-05T23:03:53.082Z,96595.97
2022-11-05T23:06:47.771Z,96596.44
2022-11-05T23:09:38.735Z,96597.56
2022-11-05T23:12:08.558Z,96595.94
2022-11-05T23:14:38.005Z,96590.78
2022-11-05T23:17:23.311Z,96600.25
2022-11-05T23:20:08.686Z,96587.09
2022-11-05T23:22:53.999Z,96590.78
2022-11-05T23:25:22.568Z,96580.88
2022-11-05T23:27:51.481Z,96586.25
2022-11-05T23:30:21.831Z,96594.03
2022-11-05T23:32:49.169Z,96587.38
2022-11-05T23:35:16.329Z,96590.63
2022-11-05T23:38:01.483Z,96596.50
2022-11-05T23:40:30.734Z,96592.41
2022-11-05T23:43:16.261Z,96602.97
2022-11-05T23:46:03.043Z,96596.34
2022-11-05T23:48:37.537Z,96591.28
2022-11-05T23:51:09.549Z,96595.66
2022-11-05T23:53:39.446Z,96597.84
2022-11-05T23:56:11.753Z,96601.34
2022-11-05T23:58:39.468Z,96598.94
